Time;durP1;ratioP1;P1;durP2;ratioP2;P2;SDS_P1;SDS_P2;PMS_P1;PMS_P2;Temp;Humidity;BMP_temperature;BMP_pressure;BME280_temperature;BME280_humidity;BME280_pressure;Samples;Min_cycle;Max_cycle;Signal;HPM_P1;HPM_P2
2023/05/10 00:01:42;;;;;;;42.45;20.92;;;;;;;-146.27;100.00;83513.28;5040377;28;20021;-68
2023/05/10 00:04:07;;;;;;;41.55;20.70;;;;;;;-146.27;100.00;83446.97;5052260;28;20083;-68
2023/05/10 00:06:32;;;;;;;35.85;20.13;;;;;;;-146.27;100.00;83503.25;5053733;28;20017;-67
2023/05/10 00:08:58;;;;;;;37.78;19.52;;;;;;;-146.27;100.00;83523.34;5048499;28;21769;-68
2023/05/10 00:11:23;;;;;;;36.63;19.30;;;;;;;-146.27;100.00;83491.19;5046327;28;20083;-68
2023/05/10 00:13:49;;;;;;;40.70;20.98;;;;;;;-146.27;100.00;83465.06;5041210;28;20061;-67
2023/05/10 00:16:14;;;;;;;40.45;20.52;;;;;;;-146.27;100.00;83513.28;5050617;28;20434;-67
2023/05/10 00:18:40;;;;;;;38.05;20.40;;;;;;;-146.27;100.00;83529.38;5044842;28;20030;-66
2023/05/10 00:21:06;;;;;;;30.00;16.92;;;;;;;-146.27;100.00;83557.50;5052223;28;20055;-67
2023/05/10 00:23:31;;;;;;;38.20;21.35;;;;;;;-146.27;100.00;83475.13;5041226;28;20034;-67
2023/05/10 00:25:57;;;;;;;39.65;19.85;;;;;;;-146.27;100.00;83501.22;5040158;28;20033;-69
2023/05/10 00:28:22;;;;;;;41.60;21.95;;;;;;;-146.27;100.00;83529.38;5052423;28;20460;-67
2023/05/10 00:30:48;;;;;;;30.77;18.17;;;;;;;-146.27;100.00;83515.31;5069234;28;20130;-67
2023/05/10 00:33:13;;;;;;;32.15;17.85;;;;;;;-146.27;100.00;83529.38;5050382;28;20031;-66
2023/05/10 00:35:38;;;;;;;36.47;19.35;;;;;;;-146.27;100.00;83497.22;5040354;28;20051;-68
2023/05/10 00:38:04;;;;;;;36.88;19.40;;;;;;;-146.27;100.00;83567.53;5040933;28;20049;-67
2023/05/10 00:40:30;;;;;;;38.03;20.10;;;;;;;-146.27;100.00;83553.47;5062484;28;20024;-66
2023/05/10 00:42:56;;;;;;;39.50;20.17;;;;;;;-146.27;100.00;83555.50;5034849;28;20149;-67
2023/05/10 00:45:22;;;;;;;40.63;21.27;;;;;;;-146.27;100.00;83559.50;5043329;28;20121;-66
2023/05/10 00:47:47;;;;;;;51.22;23.83;;;;;;;-146.27;100.00;83553.47;5041704;28;20469;-66
2023/05/10 00:50:14;;;;;;;46.17;22.85;;;;;;;-146.27;100.00;83535.41;5037772;28;20079;-67
2023/05/10 00:52:40;;;;;;;51.83;25.17;;;;;;;-146.27;100.00;83545.44;5038333;28;20043;-67
2023/05/10 00:55:06;;;;;;;51.67;26.35;;;;;;;-146.27;100.00;83553.47;5052287;28;20495;-67
2023/05/10 00:57:32;;;;;;;55.40;27.33;;;;;;;-146.27;100.00;83529.38;5051855;28;20473;-68
2023/05/10 00:59:57;;;;;;;52.90;26.38;;;;;;;-146.27;100.00;83565.53;5059188;28;20044;-66
2023/05/10 01:02:24;;;;;;;69.43;31.83;;;;;;;-146.27;100.00;83525.34;5035347;28;20021;-67
2023/05/10 01:04:49;;;;;;;83.32;33.35;;;;;;;-146.27;100.00;83545.44;5044563;28;20492;-68
2023/05/10 01:07:15;;;;;;;78.85;33.05;;;;;;;-146.27;100.00;83527.34;5037503;28;20032;-68
2023/05/10 01:09:40;;;;;;;75.57;33.20;;;;;;;-146.27;100.00;83519.31;5032851;28;20509;-67
2023/05/10 01:12:07;;;;;;;99.13;33.88;;;;;;;-146.27;100.00;83561.53;5039616;28;20033;-66
2023/05/10 01:14:33;;;;;;;142.93;34.22;;;;;;;-146.27;100.00;83541.41;5050504;28;20393;-67
2023/05/10 01:17:00;;;;;;;94.93;32.25;;;;;;;-146.27;100.00;83517.31;5036873;28;20048;-67
2023/05/10 01:19:29;;;;;;;99.35;31.10;;;;;;;-146.27;100.00;83493.19;5043007;28;20020;-67
2023/05/10 01:22:06;;;;;;;159.27;27.73;;;;;;;-146.27;100.00;83535.41;5043690;28;20021;-66
2023/05/10 01:24:47;;;;;;;148.02;30.30;;;;;;;-146.27;100.00;83525.34;5061296;28;20112;-67
2023/05/10 01:27:41;;;;;;;171.77;27.30;;;;;;;-146.27;100.00;83531.38;5037989;28;20072;-67
2023/05/10 01:30:33;;;;;;;252.27;29.85;;;;;;;-146.27;100.00;83517.31;5056793;28;20387;-67
2023/05/10 01:33:40;;;;;;;140.10;26.85;;;;;;;-146.27;100.00;83515.31;5039878;28;20098;-69
2023/05/10 01:36:41;;;;;;;101.53;25.58;;;;;;;-146.27;100.00;83481.16;5013056;28;20147;-68
2023/05/10 01:39:14;;;;;;;102.60;24.48;;;;;;;-146.27;100.00;83493.19;5036788;28;20500;-67
2023/05/10 01:41:57;;;;;;;105.37;26.03;;;;;;;-146.27;100.00;83469.09;5057390;28;20488;-68
2023/05/10 01:44:44;;;;;;;108.38;27.00;;;;;;;-146.27;100.00;83491.19;5040415;28;20770;-67
2023/05/10 01:47:15;;;;;;;112.80;26.40;;;;;;;-146.27;100.00;83493.19;5037437;28;20029;-67
2023/05/10 01:49:54;;;;;;;109.05;27.17;;;;;;;-146.27;100.00;83489.19;5042153;28;20013;-67
2023/05/10 01:52:25;;;;;;;121.05;28.15;;;;;;;-146.27;100.00;83465.06;5047818;28;20499;-66
2023/05/10 01:55:00;;;;;;;126.78;30.25;;;;;;;-146.27;100.00;83477.13;5045156;28;20028;-66
2023/05/10 01:57:27;;;;;;;97.22;26.77;;;;;;;-146.27;100.00;83424.88;5049385;28;20100;-67
2023/05/10 01:59:54;;;;;;;115.43;29.45;;;;;;;-146.27;100.00;83493.19;5047376;28;20028;-68
2023/05/10 02:02:21;;;;;;;105.72;30.63;;;;;;;-146.27;100.00;83469.09;5037206;28;20143;-67
2023/05/10 02:04:49;;;;;;;113.45;31.35;;;;;;;-146.27;100.00;83489.19;5039762;28;20067;-67
2023/05/10 02:07:15;;;;;;;110.82;30.42;;;;;;;-146.27;100.00;83412.81;5047743;28;20063;-66
2023/05/10 02:09:47;;;;;;;97.50;29.83;;;;;;;-146.27;100.00;83457.03;5055746;28;20154;-67
2023/05/10 02:12:13;;;;;;;102.13;30.25;;;;;;;-146.27;100.00;83440.94;5047041;28;20063;-66
2023/05/10 02:14:41;;;;;;;106.80;30.95;;;;;;;-146.27;100.00;83424.88;5044352;28;20040;-67
2023/05/10 02:17:08;;;;;;;109.13;30.92;;;;;;;-146.27;100.00;83426.88;5051163;28;20051;-66
2023/05/10 02:19:40;;;;;;;114.22;34.42;;;;;;;-146.27;100.00;83432.91;5040292;28;20103;-67
2023/05/10 02:22:08;;;;;;;108.70;32.22;;;;;;;-146.27;100.00;83432.91;5031155;28;20021;-66
2023/05/10 02:24:35;;;;;;;96.03;31.35;;;;;;;-146.27;100.00;83410.81;5049359;28;20033;-67
2023/05/10 02:27:03;;;;;;;101.72;30.75;;;;;;;-146.27;100.00;83426.88;5051937;28;20780;-66
2023/05/10 02:29:30;;;;;;;100.00;31.73;;;;;;;-146.27;100.00;83396.75;5050057;28;20056;-67
2023/05/10 02:31:56;;;;;;;91.32;31.33;;;;;;;-146.27;100.00;83455.03;5062580;28;20491;-67
2023/05/10 02:34:24;;;;;;;93.25;30.40;;;;;;;-146.27;100.00;83384.69;5032305;28;20104;-67
2023/05/10 02:36:52;;;;;;;93.55;29.17;;;;;;;-146.27;100.00;83432.91;5037838;28;20033;-67
2023/05/10 02:39:20;;;;;;;91.10;29.65;;;;;;;-146.27;100.00;83436.94;5041531;28;20104;-67
2023/05/10 02:41:46;;;;;;;95.93;31.60;;;;;;;-146.27;100.00;83432.91;5043966;28;20377;-68
2023/05/10 02:44:15;;;;;;;88.80;30.23;;;;;;;-146.27;100.00;83428.91;5039931;28;20030;-67
2023/05/10 02:46:41;;;;;;;82.00;29.27;;;;;;;-146.27;100.00;83400.78;5041289;28;20036;-66
2023/05/10 02:49:06;;;;;;;88.35;28.55;;;;;;;-146.27;100.00;83453.00;5054053;28;20028;-67
2023/05/10 02:51:35;;;;;;;86.47;30.27;;;;;;;-146.27;100.00;83392.72;5073546;28;20059;-68
2023/05/10 02:54:15;;;;;;;87.50;31.92;;;;;;;-146.27;100.00;83382.69;5055024;28;20378;-68
2023/05/10 02:56:46;;;;;;;90.28;31.40;;;;;;;-146.27;100.00;83380.69;5035941;28;20096;-67
2023/05/10 02:59:12;;;;;;;82.72;31.98;;;;;;;-146.27;100.00;83410.81;5042058;28;20053;-67
2023/05/10 03:01:37;;;;;;;88.90;33.85;;;;;;;-146.27;100.00;83380.69;5046465;28;20060;-67
2023/05/10 03:04:03;;;;;;;85.40;34.15;;;;;;;-146.27;100.00;83386.69;5051971;28;20044;-67
2023/05/10 03:06:28;;;;;;;90.47;36.72;;;;;;;-146.27;100.00;83376.66;5053001;28;20056;-68
2023/05/10 03:08:54;;;;;;;87.13;36.25;;;;;;;-146.27;100.00;83430.91;5050461;28;20017;-66
2023/05/10 03:11:49;;;;;;;83.05;36.03;;;;;;;-146.27;100.00;83408.81;5063601;28;20025;-67
2023/05/10 03:14:43;;;;;;;90.30;35.17;;;;;;;-146.27;100.00;83392.72;5034431;28;20049;-67
2023/05/10 03:17:25;;;;;;;79.47;33.03;;;;;;;-146.27;100.00;83416.84;5068606;28;20563;-67
2023/05/10 03:19:55;;;;;;;84.15;35.97;;;;;;;-146.27;100.00;83394.75;5035193;28;20072;-67
2023/05/10 03:22:44;;;;;;;87.55;36.58;;;;;;;-146.27;100.00;83402.78;5041521;28;20103;-67
2023/05/10 03:25:12;;;;;;;91.20;39.47;;;;;;;-146.27;100.00;83402.78;5052846;28;20051;-67
2023/05/10 03:27:41;;;;;;;87.38;37.45;;;;;;;-146.27;100.00;83396.75;5051247;28;20025;-66
2023/05/10 03:30:10;;;;;;;85.95;36.65;;;;;;;-146.27;100.00;83424.88;5046069;28;20563;-66
2023/05/10 03:32:35;;;;;;;91.88;39.90;;;;;;;-146.27;100.00;83420.88;5046963;28;20496;-66
2023/05/10 03:35:06;;;;;;;98.35;42.67;;;;;;;-146.27;100.00;83424.88;5035177;28;20108;-67
2023/05/10 03:37:31;;;;;;;94.28;45.00;;;;;;;-146.27;100.00;83392.72;5040646;28;20098;-66
2023/05/10 03:39:57;;;;;;;104.18;46.25;;;;;;;-146.27;100.00;83376.66;5054104;28;20061;-66
2023/05/10 03:42:22;;;;;;;93.60;45.20;;;;;;;-146.27;100.00;83388.72;5048465;28;20091;-66
2023/05/10 03:44:49;;;;;;;95.03;43.35;;;;;;;-146.27;100.00;83438.94;5046230;28;20033;-66
2023/05/10 03:47:14;;;;;;;99.30;47.60;;;;;;;-146.27;100.00;83388.72;5050384;28;20025;-67
2023/05/10 03:49:40;;;;;;;108.55;51.03;;;;;;;-146.27;100.00;83422.88;5032969;28;20048;-67
2023/05/10 03:52:06;;;;;;;106.32;50.17;;;;;;;-146.27;100.00;83404.78;5032150;28;20030;-66
2023/05/10 03:54:32;;;;;;;107.05;50.13;;;;;;;-146.27;100.00;83404.78;5042959;28;20104;-66
2023/05/10 03:56:58;;;;;;;103.30;50.70;;;;;;;-146.27;100.00;83424.88;5052314;28;20025;-68
2023/05/10 03:59:23;;;;;;;97.20;47.58;;;;;;;-146.27;100.00;83426.88;5047260;28;20103;-67
2023/05/10 04:01:48;;;;;;;76.55;38.72;;;;;;;-146.27;100.00;83432.91;5033475;28;20037;-67
2023/05/10 04:04:14;;;;;;;69.25;36.80;;;;;;;-146.27;100.00;83436.94;5040264;28;20017;-67
2023/05/10 04:06:39;;;;;;;60.38;31.48;;;;;;;-146.27;100.00;83394.75;5050560;28;20040;-67
2023/05/10 04:09:04;;;;;;;55.58;29.50;;;;;;;-146.27;100.00;83424.88;5050413;28;20444;-68
2023/05/10 04:11:30;;;;;;;60.97;30.63;;;;;;;-146.27;100.00;83420.88;5032717;28;20087;-67
2023/05/10 04:13:55;;;;;;;69.97;33.22;;;;;;;-146.27;100.00;83432.91;5044834;28;20025;-68
2023/05/10 04:16:21;;;;;;;61.72;33.10;;;;;;;-146.27;100.00;83416.84;5051832;28;20025;-67
2023/05/10 04:18:46;;;;;;;81.00;38.90;;;;;;;-146.27;100.00;83473.09;5045136;28;20362;-67
2023/05/10 04:21:13;;;;;;;68.35;35.38;;;;;;;-146.27;100.00;83497.22;5047053;28;20511;-68
2023/05/10 04:23:38;;;;;;;70.70;34.05;;;;;;;-146.27;100.00;83501.22;5043745;28;20120;-67
2023/05/10 04:26:04;;;;;;;74.93;32.45;;;;;;;-146.27;100.00;83440.94;5047170;28;20498;-67
2023/05/10 04:28:29;;;;;;;72.35;33.33;;;;;;;-146.27;100.00;83453.00;5049885;28;20029;-67
2023/05/10 04:31:04;;;;;;;77.95;26.95;;;;;;;-146.27;100.00;83436.94;5048095;28;20100;-67
2023/05/10 04:33:30;;;;;;;75.70;23.50;;;;;;;-146.27;100.00;83436.94;5047211;28;20109;-67
2023/05/10 04:35:55;;;;;;;73.70;24.50;;;;;;;-146.27;100.00;83436.94;5046250;28;20107;-68
2023/05/10 04:38:20;;;;;;;77.47;20.70;;;;;;;-146.27;100.00;83461.06;5050996;28;20029;-68
2023/05/10 04:40:46;;;;;;;76.18;18.35;;;;;;;-146.27;100.00;83481.16;5048394;28;20031;-67
2023/05/10 04:43:11;;;;;;;96.55;20.50;;;;;;;-146.27;100.00;83503.25;5050625;28;20104;-67
2023/05/10 04:45:36;;;;;;;92.22;18.77;;;;;;;-146.27;100.00;83461.06;5049925;28;20024;-66
2023/05/10 04:48:02;;;;;;;96.63;20.13;;;;;;;-146.27;100.00;83489.19;5043622;28;20032;-67
2023/05/10 04:50:27;;;;;;;88.30;21.90;;;;;;;-146.27;100.00;83499.22;5062645;28;20036;-66
2023/05/10 04:52:52;;;;;;;77.78;18.80;;;;;;;-146.27;100.00;83505.25;5042419;28;20026;-68
2023/05/10 04:55:18;;;;;;;67.72;18.52;;;;;;;-146.27;100.00;83481.16;5050326;28;20027;-67
2023/05/10 04:57:43;;;;;;;57.50;18.08;;;;;;;-146.27;100.00;83467.06;5047600;28;20037;-67
2023/05/10 05:00:09;;;;;;;56.55;17.77;;;;;;;-146.27;100.00;83491.19;5051442;28;20078;-67
2023/05/10 05:02:34;;;;;;;69.97;20.95;;;;;;;-146.27;100.00;83457.03;5046416;28;20364;-67
2023/05/10 05:05:00;;;;;;;66.85;20.88;;;;;;;-146.27;100.00;83453.00;5038517;28;20032;-66
2023/05/10 05:07:25;;;;;;;75.45;23.65;;;;;;;-146.27;100.00;83457.03;5033633;28;20392;-67
2023/05/10 05:09:51;;;;;;;79.63;25.75;;;;;;;-146.27;100.00;83473.09;5060806;28;20220;-67
2023/05/10 05:12:16;;;;;;;66.32;23.05;;;;;;;-146.27;100.00;83432.91;5056281;28;20020;-67
2023/05/10 05:14:41;;;;;;;62.38;23.98;;;;;;;-146.27;100.00;83467.06;5040032;28;20028;-67
2023/05/10 05:17:07;;;;;;;62.80;23.52;;;;;;;-146.27;100.00;83491.19;5046845;28;20048;-67
2023/05/10 05:19:32;;;;;;;61.72;25.73;;;;;;;-146.27;100.00;83463.06;5045079;28;20025;-66
2023/05/10 05:21:58;;;;;;;67.47;23.73;;;;;;;-146.27;100.00;83457.03;5043182;28;20029;-67
2023/05/10 05:24:23;;;;;;;72.07;23.42;;;;;;;-146.27;100.00;83469.09;5042406;28;20033;-67
2023/05/10 05:26:48;;;;;;;60.13;19.27;;;;;;;-146.27;100.00;83457.03;5052844;28;20414;-68
2023/05/10 05:29:14;;;;;;;55.85;18.27;;;;;;;-146.27;100.00;83489.19;5047625;28;20032;-67
2023/05/10 05:31:39;;;;;;;43.42;15.10;;;;;;;-146.27;100.00;83489.19;5051935;28;20021;-67
2023/05/10 05:34:04;;;;;;;48.08;15.93;;;;;;;-146.27;100.00;83493.19;5062547;28;20114;-67
2023/05/10 05:36:31;;;;;;;51.28;14.88;;;;;;;-146.27;100.00;83511.28;5054597;28;20028;-68
2023/05/10 05:38:56;;;;;;;39.90;15.27;;;;;;;-146.27;100.00;83513.28;5044897;28;20412;-68
2023/05/10 05:41:23;;;;;;;41.88;14.20;;;;;;;-146.27;100.00;83451.00;5041825;28;20033;-68
2023/05/10 05:43:49;;;;;;;40.67;14.13;;;;;;;-146.27;100.00;83523.34;5040927;28;20036;-68
2023/05/10 05:46:14;;;;;;;38.08;13.73;;;;;;;-146.27;100.00;83451.00;5043319;28;20025;-68
2023/05/10 05:48:39;;;;;;;37.42;12.90;;;;;;;-146.27;100.00;83455.03;5044172;28;20027;-68
2023/05/10 05:51:05;;;;;;;35.95;13.73;;;;;;;-146.27;100.00;83416.84;5047373;28;20132;-69
2023/05/10 05:53:31;;;;;;;34.58;13.15;;;;;;;-146.27;100.00;83436.94;5057961;28;20498;-68
2023/05/10 05:55:58;;;;;;;28.23;11.63;;;;;;;-146.27;100.00;83455.03;5068325;28;20040;-69
2023/05/10 05:58:24;;;;;;;25.25;11.93;;;;;;;-146.27;100.00;83416.84;5049881;28;20099;-70
2023/05/10 06:00:51;;;;;;;28.92;12.50;;;;;;;-146.27;100.00;83412.81;5054790;28;20171;-69
2023/05/10 06:03:17;;;;;;;31.83;12.68;;;;;;;-146.27;100.00;83444.97;5053442;28;20020;-68
2023/05/10 06:05:43;;;;;;;24.10;11.10;;;;;;;-146.27;100.00;83430.91;5053136;28;20021;-68
2023/05/10 06:08:08;;;;;;;25.00;11.63;;;;;;;-146.27;100.00;83463.06;5055818;28;20024;-69
2023/05/10 06:10:33;;;;;;;28.05;12.93;;;;;;;-146.27;100.00;83446.97;5055531;28;20775;-69
2023/05/10 06:12:59;;;;;;;24.80;11.82;;;;;;;-146.27;100.00;83485.16;5053124;28;20036;-68
2023/05/10 06:15:25;;;;;;;26.08;11.80;;;;;;;-146.27;100.00;83408.81;5044029;28;20163;-70
2023/05/10 06:17:50;;;;;;;24.15;11.10;;;;;;;-146.27;100.00;83444.97;5050225;28;20036;-69
2023/05/10 06:20:16;;;;;;;20.20;11.52;;;;;;;-146.27;100.00;83384.69;5040999;28;20063;-69
2023/05/10 06:22:41;;;;;;;24.90;11.43;;;;;;;-146.27;100.00;83370.63;5047100;28;20025;-69
2023/05/10 06:25:07;;;;;;;22.98;10.75;;;;;;;-146.27;100.00;83364.59;5035866;28;20535;-69
2023/05/10 06:27:33;;;;;;;24.85;10.85;;;;;;;-146.27;100.00;83334.47;5040269;28;20087;-68
2023/05/10 06:29:58;;;;;;;14.95;8.35;;;;;;;-146.27;100.00;83352.53;5046857;28;20021;-68
2023/05/10 06:32:23;;;;;;;14.27;8.77;;;;;;;-146.27;100.00;83344.50;5043149;28;20104;-69
2023/05/10 06:34:49;;;;;;;15.55;9.05;;;;;;;-146.27;100.00;83368.63;5048149;28;20039;-68
2023/05/10 06:37:14;;;;;;;14.25;7.05;;;;;;;-146.27;100.00;83352.53;5042318;28;20028;-68
2023/05/10 06:39:39;;;;;;;12.70;7.70;;;;;;;-146.27;100.00;83338.47;5037946;28;20494;-68
2023/05/10 06:42:05;;;;;;;10.95;7.13;;;;;;;-146.27;100.00;83274.19;5042902;28;20025;-69
2023/05/10 06:44:30;;;;;;;11.07;6.78;;;;;;;-146.27;100.00;83229.97;5036785;28;20029;-69
2023/05/10 06:46:56;;;;;;;14.55;7.88;;;;;;;-146.27;100.00;83260.13;5046199;28;20048;-68
2023/05/10 06:49:21;;;;;;;9.10;6.43;;;;;;;-146.27;100.00;83264.13;5033398;28;20112;-69
2023/05/10 06:51:48;;;;;;;9.93;6.65;;;;;;;-146.27;100.00;83232.00;5038400;28;20108;-69
2023/05/10 06:54:13;;;;;;;12.00;6.03;;;;;;;-146.27;100.00;83244.03;5043628;28;20111;-69
2023/05/10 06:56:38;;;;;;;9.10;5.82;;;;;;;-146.27;100.00;83195.81;5053759;28;20052;-69
2023/05/10 06:59:04;;;;;;;11.05;6.20;;;;;;;-146.27;100.00;83227.97;5053581;28;20112;-68
2023/05/10 07:01:29;;;;;;;9.02;5.57;;;;;;;-146.27;100.00;83260.13;5041668;28;20096;-69
2023/05/10 07:03:55;;;;;;;8.98;5.35;;;;;;;-146.27;100.00;83232.00;5044714;28;20033;-69
2023/05/10 07:06:21;;;;;;;8.50;6.00;;;;;;;-146.27;100.00;83276.19;5051140;28;20031;-68
2023/05/10 07:08:46;;;;;;;11.63;6.10;;;;;;;-146.27;100.00;83229.97;5050175;28;20029;-69
2023/05/10 07:11:11;;;;;;;9.88;6.57;;;;;;;-146.27;100.00;83248.06;5049477;28;20016;-69
2023/05/10 07:13:38;;;;;;;10.73;6.85;;;;;;;-146.27;100.00;83282.22;5049687;28;20060;-69
2023/05/10 07:16:06;;;;;;;17.50;6.88;;;;;;;-146.27;100.00;83276.19;5043748;28;20033;-69
2023/05/10 07:18:31;;;;;;;10.43;6.90;;;;;;;-146.27;100.00;83264.13;5046151;28;20043;-68
2023/05/10 07:20:57;;;;;;;11.57;7.30;;;;;;;-146.27;100.00;83274.19;5034823;28;20658;-68
2023/05/10 07:23:22;;;;;;;10.35;6.75;;;;;;;-146.27;100.00;83268.16;5052185;28;20029;-68
2023/05/10 07:25:49;;;;;;;13.15;6.68;;;;;;;-146.27;100.00;83268.16;5051676;28;20029;-69
2023/05/10 07:28:16;;;;;;;15.43;7.22;;;;;;;-146.27;100.00;83240.03;5047733;28;20079;-70
2023/05/10 07:30:42;;;;;;;15.63;7.97;;;;;;;-146.27;100.00;83232.00;5048192;28;20032;-69
2023/05/10 07:33:09;;;;;;;13.63;7.60;;;;;;;-146.27;100.00;83213.91;5050738;28;20021;-69
2023/05/10 07:35:35;;;;;;;12.48;7.22;;;;;;;-146.27;100.00;83223.94;5059795;28;20028;-69
2023/05/10 07:38:00;;;;;;;15.65;7.05;;;;;;;-146.27;100.00;83203.88;5051690;28;20672;-69
2023/05/10 07:40:26;;;;;;;15.35;7.95;;;;;;;-146.27;100.00;83187.78;5052298;28;20033;-70
2023/05/10 07:42:51;;;;;;;14.13;6.80;;;;;;;-146.27;100.00;83179.75;5046519;28;20024;-69
2023/05/10 07:45:17;;;;;;;11.68;6.88;;;;;;;-146.27;100.00;83189.78;5046880;28;20128;-69
2023/05/10 07:47:43;;;;;;;11.18;6.22;;;;;;;-146.27;100.00;83191.81;5050597;28;20083;-70
2023/05/10 07:50:08;;;;;;;13.32;7.00;;;;;;;-146.27;100.00;83191.81;5049252;28;20025;-68
2023/05/10 07:52:33;;;;;;;9.48;6.53;;;;;;;-146.27;100.00;83173.72;5047335;28;20037;-69
2023/05/10 07:54:59;;;;;;;14.45;6.30;;;;;;;-146.27;100.00;83123.50;5045270;28;20052;-70
2023/05/10 07:57:24;;;;;;;11.57;6.78;;;;;;;-146.27;100.00;83115.47;5039857;28;20079;-69
2023/05/10 07:59:50;;;;;;;11.05;6.25;;;;;;;-146.27;100.00;83163.69;5040594;28;20060;-70
2023/05/10 08:02:15;;;;;;;10.32;7.03;;;;;;;-146.27;100.00;83183.78;5050532;28;20103;-69
2023/05/10 08:04:40;;;;;;;12.35;6.35;;;;;;;-146.27;100.00;83187.78;5040197;28;20028;-70
2023/05/10 08:07:06;;;;;;;9.93;6.38;;;;;;;-146.27;100.00;83203.88;5051795;28;20040;-69
2023/05/10 08:09:31;;;;;;;12.25;6.47;;;;;;;-146.27;100.00;83183.78;5044398;28;20050;-70
2023/05/10 08:11:58;;;;;;;13.50;6.82;;;;;;;-146.27;100.00;83195.81;5052054;28;20107;-69
2023/05/10 08:14:24;;;;;;;10.23;5.82;;;;;;;-146.27;100.00;83211.91;5046976;28;20107;-68
2023/05/10 08:16:49;;;;;;;10.23;6.13;;;;;;;-146.27;100.00;83183.78;5043106;28;20481;-69
2023/05/10 08:19:18;;;;;;;14.70;6.32;;;;;;;-146.27;100.00;83167.69;5048110;28;21815;-68
2023/05/10 08:21:44;;;;;;;7.63;5.00;;;;;;;-146.27;100.00;83232.00;5033204;28;20105;-69
2023/05/10 08:24:09;;;;;;;11.52;5.60;;;;;;;-146.27;100.00;83137.56;5031562;28;20064;-69
2023/05/10 08:26:35;;;;;;;9.13;4.90;;;;;;;-146.27;100.00;83111.44;5030972;28;20022;-69
2023/05/10 08:29:00;;;;;;;10.63;5.47;;;;;;;-146.27;100.00;83053.16;5032246;28;20079;-69
2023/05/10 08:31:25;;;;;;;10.60;4.32;;;;;;;-146.27;100.00;83087.31;5048257;28;20028;-70
2023/05/10 08:33:52;;;;;;;7.15;4.70;;;;;;;-146.27;100.00;83065.22;5047716;28;20431;-67
2023/05/10 08:36:21;;;;;;;6.75;4.13;;;;;;;-146.27;100.00;83079.28;5060899;28;20029;-68
2023/05/10 08:38:47;;;;;;;7.88;4.18;;;;;;;-146.27;100.00;83047.16;5049104;28;20037;-68
2023/05/10 08:41:13;;;;;;;7.50;4.10;;;;;;;-146.27;100.00;83051.16;5050743;28;20051;-68
2023/05/10 08:43:38;;;;;;;5.85;3.85;;;;;;;-146.27;100.00;83025.03;5040823;28;20425;-68
2023/05/10 08:46:05;;;;;;;8.90;4.38;;;;;;;-146.27;100.00;83019.03;5057935;28;20024;-69
2023/05/10 08:48:34;;;;;;;10.15;6.00;;;;;;;-146.27;100.00;83039.09;5059124;28;20466;-69
2023/05/10 08:51:00;;;;;;;7.50;4.47;;;;;;;-146.27;100.00;83035.09;5044219;28;20021;-71
2023/05/10 08:53:28;;;;;;;7.53;4.00;;;;;;;-146.27;100.00;83067.25;5045348;28;20484;-70
2023/05/10 08:55:55;;;;;;;7.40;4.55;;;;;;;-146.27;100.00;83021.03;5064123;28;20082;-72
2023/05/10 08:58:21;;;;;;;5.53;3.72;;;;;;;-146.27;100.00;83051.16;5061545;28;20089;-71
2023/05/10 09:00:50;;;;;;;5.28;3.25;;;;;;;-146.27;100.00;83039.09;5058819;28;20127;-70
2023/05/10 09:03:16;;;;;;;5.28;3.67;;;;;;;-146.27;100.00;83071.25;5049546;28;20024;-70
2023/05/10 09:05:42;;;;;;;6.65;4.10;;;;;;;-146.27;100.00;83063.22;5050972;28;20572;-70
2023/05/10 09:08:08;;;;;;;4.57;3.42;;;;;;;-146.27;100.00;83089.34;5039938;28;20055;-71
2023/05/10 09:10:34;;;;;;;5.20;4.00;;;;;;;-146.27;100.00;83095.38;5043654;28;20049;-70
2023/05/10 09:13:00;;;;;;;6.07;4.03;;;;;;;-146.27;100.00;83103.41;5045599;28;20032;-70
2023/05/10 09:15:26;;;;;;;7.80;4.60;;;;;;;-146.27;100.00;83145.59;5050267;28;20102;-71
2023/05/10 09:17:52;;;;;;;8.63;4.97;;;;;;;-146.27;100.00;83099.38;5060715;28;20029;-70
2023/05/10 09:20:17;;;;;;;8.55;5.95;;;;;;;-146.27;100.00;83147.59;5037558;28;20554;-70
2023/05/10 09:22:43;;;;;;;12.60;5.38;;;;;;;-146.27;100.00;83135.53;5035983;28;20024;-70
2023/05/10 09:25:13;;;;;;;9.75;5.72;;;;;;;-146.27;100.00;83141.56;5043616;28;20109;-70
2023/05/10 09:27:45;;;;;;;10.40;7.15;;;;;;;-146.27;100.00;83145.59;5047590;28;20040;-69
2023/05/10 09:30:23;;;;;;;14.55;7.72;;;;;;;-146.27;100.00;83161.66;5051807;28;20041;-71
2023/05/10 09:32:49;;;;;;;13.23;6.63;;;;;;;-146.27;100.00;83087.31;5056596;28;20162;-70
2023/05/10 09:35:20;;;;;;;13.75;7.13;;;;;;;-146.27;100.00;83047.16;5056136;28;20032;-70
2023/05/10 09:37:50;;;;;;;11.02;6.65;;;;;;;-146.27;100.00;83039.09;5059794;28;20534;-71
2023/05/10 09:40:20;;;;;;;13.13;7.45;;;;;;;-146.27;100.00;83021.03;5060431;28;20037;-70
2023/05/10 09:43:05;;;;;;;12.27;6.85;;;;;;;-146.27;100.00;82966.78;5059548;28;20104;-71
2023/05/10 09:45:32;;;;;;;12.70;7.35;;;;;;;-146.27;100.00;82890.44;5056359;28;20020;-71
2023/05/10 09:47:58;;;;;;;12.77;5.65;;;;;;;-146.27;100.00;82838.19;5043895;28;20029;-70
2023/05/10 09:50:25;;;;;;;11.93;5.93;;;;;;;-146.27;100.00;82810.06;5047453;28;20043;-70
2023/05/10 09:52:58;;;;;;;10.25;5.85;;;;;;;-146.27;100.00;82818.13;5047555;28;20048;-70
2023/05/10 09:55:25;;;;;;;8.88;4.68;;;;;;;-146.27;100.00;82775.91;5046021;28;20107;-70
2023/05/10 09:58:00;;;;;;;10.45;4.40;;;;;;;-146.27;100.00;82743.78;5044862;28;20508;-71
2023/05/10 10:00:27;;;;;;;7.95;4.65;;;;;;;-146.27;100.00;82721.69;5047927;28;20029;-71
2023/05/10 10:02:59;;;;;;;7.32;4.53;;;;;;;-146.27;100.00;82633.28;5045324;28;20469;-71
2023/05/10 10:05:29;;;;;;;9.43;4.63;;;;;;;-146.27;100.00;82715.66;5045352;28;20036;-71
2023/05/10 10:07:56;;;;;;;11.30;5.85;;;;;;;-146.27;100.00;82717.66;5047330;28;20029;-71
2023/05/10 10:10:22;;;;;;;15.32;7.13;;;;;;;-146.27;100.00;82725.69;5047532;28;20048;-71
2023/05/10 10:12:47;;;;;;;19.75;7.18;;;;;;;-146.27;100.00;82741.78;5045886;28;20378;-71
2023/05/10 10:15:13;;;;;;;14.85;7.45;;;;;;;-146.27;100.00;82761.84;5047347;28;20106;-72
2023/05/10 10:17:39;;;;;;;16.33;7.35;;;;;;;-146.27;100.00;82747.78;5047058;28;20052;-71
2023/05/10 10:20:05;;;;;;;19.60;9.25;;;;;;;-146.27;100.00;82826.16;5047265;28;20051;-71
2023/05/10 10:22:30;;;;;;;24.00;8.55;;;;;;;-146.27;100.00;82860.31;5046649;28;20404;-70
2023/05/10 10:24:57;;;;;;;16.83;7.60;;;;;;;-146.27;100.00;82850.25;5047727;28;20028;-71
2023/05/10 10:27:45;;;;;;;15.20;7.38;;;;;;;-146.27;100.00;82882.41;5047306;28;20143;-71
2023/05/10 10:30:26;;;;;;;17.38;7.93;;;;;;;-146.27;100.00;82906.50;5045044;28;20492;-71
2023/05/10 10:32:57;;;;;;;17.88;8.60;;;;;;;-146.27;100.00;82830.16;5047546;28;20025;-71
2023/05/10 10:35:23;;;;;;;22.58;8.55;;;;;;;-146.27;100.00;82840.22;5047460;28;20032;-71
2023/05/10 10:37:50;;;;;;;16.90;8.48;;;;;;;-146.27;100.00;82846.25;5047261;28;20057;-70
2023/05/10 10:40:31;;;;;;;12.32;6.88;;;;;;;-146.27;100.00;82846.25;5046660;28;20025;-70
2023/05/10 10:42:58;;;;;;;15.43;7.18;;;;;;;-146.27;100.00;82858.28;5045376;28;20024;-70
2023/05/10 10:45:25;;;;;;;14.73;8.13;;;;;;;-146.27;100.00;82882.41;5047078;28;20024;-71
2023/05/10 10:48:23;;;;;;;15.85;8.63;;;;;;;-146.27;100.00;82928.59;5047106;28;20025;-71
2023/05/10 10:50:57;;;;;;;17.42;8.80;;;;;;;-146.27;100.00;82962.75;5043327;28;20102;-69
2023/05/10 10:53:26;;;;;;;15.60;8.15;;;;;;;-146.27;100.00;82956.75;5045968;28;20357;-71
2023/05/10 10:56:06;;;;;;;23.10;9.38;;;;;;;-146.27;100.00;82962.75;5046731;28;20057;-70
2023/05/10 10:58:33;;;;;;;21.40;8.70;;;;;;;-146.27;100.00;82948.69;5047385;28;20510;-70
2023/05/10 11:01:19;;;;;;;18.38;9.25;;;;;;;-146.27;100.00;83002.94;5047884;28;20039;-71